Time;durP1;ratioP1;P1;durP2;ratioP2;P2;SDS_P1;SDS_P2;PMS_P1;PMS_P2;Temp;Humidity;BMP_temperature;BMP_pressure;BME280_temperature;BME280_humidity;BME280_pressure;Samples;Min_cycle;Max_cycle;Signal;HPM_P1;HPM_P2
2023/06/18 00:00:59;;;;;;;;;;;19.80;57.50;;;;;;5050059;28;19921;-82
2023/06/18 00:03:25;;;;;;;;;;;19.90;58.20;;;;;;5075691;28;19913;-82
2023/06/18 00:05:54;;;;;;;;;;;19.90;58.60;;;;;;5046683;28;19947;-82
2023/06/18 00:08:20;;;;;;;;;;;19.80;59.20;;;;;;5058695;28;19960;-82
2023/06/18 00:10:46;;;;;;;;;;;19.80;58.80;;;;;;5067392;28;19913;-82
2023/06/18 00:13:11;;;;;;;;;;;19.80;58.90;;;;;;5056249;28;19962;-82
2023/06/18 00:15:37;;;;;;;;;;;19.70;58.90;;;;;;5070773;28;19935;-82
2023/06/18 00:18:02;;;;;;;;;;;19.60;59.00;;;;;;5057133;28;20329;-81
2023/06/18 00:20:28;;;;;;;;;;;19.60;58.80;;;;;;5048457;28;19927;-82
2023/06/18 00:22:53;;;;;;;;;;;19.50;59.40;;;;;;5052410;28;19970;-82
2023/06/18 00:25:19;;;;;;;;;;;19.60;59.60;;;;;;5068042;28;19913;-82
2023/06/18 00:27:48;;;;;;;;;;;19.50;60.00;;;;;;5060148;28;19956;-81
2023/06/18 00:30:14;;;;;;;;;;;19.40;60.10;;;;;;5049861;28;19935;-82
2023/06/18 00:32:43;;;;;;;;;;;19.40;60.60;;;;;;5052073;28;19924;-81
2023/06/18 00:35:10;;;;;;;;;;;19.20;61.20;;;;;;5046641;28;19966;-82
2023/06/18 00:37:35;;;;;;;;;;;19.20;61.00;;;;;;5064591;28;19917;-81
2023/06/18 00:40:01;;;;;;;;;;;19.40;60.80;;;;;;5050809;28;19915;-81
2023/06/18 00:42:28;;;;;;;;;;;19.40;60.60;;;;;;5045405;28;19921;-82
2023/06/18 00:44:54;;;;;;;;;;;19.20;61.10;;;;;;5051274;28;19934;-81
2023/06/18 00:47:20;;;;;;;;;;;19.20;61.40;;;;;;5074608;28;19920;-81
2023/06/18 00:49:45;;;;;;;;;;;19.10;61.30;;;;;;5062120;28;19928;-82
2023/06/18 00:52:12;;;;;;;;;;;19.10;61.50;;;;;;5066803;28;19909;-81
2023/06/18 00:54:39;;;;;;;;;;;19.00;62.20;;;;;;5047230;28;20055;-80
2023/06/18 00:57:08;;;;;;;;;;;19.10;61.60;;;;;;5051468;28;19916;-81
2023/06/18 00:59:34;;;;;;;;;;;19.00;62.10;;;;;;5054516;28;19920;-81
2023/06/18 01:02:00;;;;;;;;;;;19.00;62.10;;;;;;5065638;28;19916;-81
2023/06/18 01:04:26;;;;;;;;;;;19.00;62.10;;;;;;5061385;28;19932;-81
2023/06/18 01:06:53;;;;;;;;;;;18.90;62.20;;;;;;5070519;28;20330;-81
2023/06/18 01:09:21;;;;;;;;;;;18.90;62.40;;;;;;5056859;28;19912;-81
2023/06/18 01:11:53;;;;;;;;;;;18.80;62.50;;;;;;5048265;28;19939;-83
2023/06/18 01:14:21;;;;;;;;;;;18.70;62.70;;;;;;5045808;28;19925;-82
2023/06/18 01:16:49;;;;;;;;;;;18.60;62.90;;;;;;5047857;28;20568;-81
2023/06/18 01:19:35;;;;;;;;;;;18.50;63.50;;;;;;5048962;28;20453;-81
2023/06/18 01:22:06;;;;;;;;;;;18.40;63.60;;;;;;5053286;28;20325;-81
2023/06/18 01:24:36;;;;;;;;;;;18.40;63.70;;;;;;5064645;28;19924;-81
2023/06/18 01:27:02;;;;;;;;;;;18.30;64.20;;;;;;5043695;28;19912;-80
2023/06/18 01:29:28;;;;;;;;;;;18.30;63.70;;;;;;5073127;28;20290;-80
2023/06/18 01:31:56;;;;;;;;;;;18.40;63.80;;;;;;5064840;28;19913;-81
2023/06/18 01:34:22;;;;;;;;;;;18.40;64.00;;;;;;5042501;28;19917;-79
2023/06/18 01:36:57;;;;;;;;;;;18.30;64.20;;;;;;5052964;28;19996;-80
2023/06/18 01:39:45;;;;;;;;;;;18.40;64.10;;;;;;5068121;28;19920;-80
2023/06/18 01:42:13;;;;;;;;;;;18.40;64.60;;;;;;5059823;28;19951;-80
2023/06/18 01:44:41;;;;;;;;;;;18.20;64.30;;;;;;5062705;28;19998;-80
2023/06/18 01:47:07;;;;;;;;;;;18.20;64.40;;;;;;5044095;28;20698;-79
2023/06/18 01:49:33;;;;;;;;;;;18.20;64.60;;;;;;5044662;28;20032;-80
2023/06/18 01:52:01;;;;;;;;;;;18.20;64.70;;;;;;5052665;28;20267;-80
2023/06/18 01:54:27;;;;;;;;;;;18.20;64.80;;;;;;5050391;28;19935;-80
2023/06/18 01:56:52;;;;;;;;;;;18.30;64.70;;;;;;5046285;28;19940;-80
2023/06/18 01:59:19;;;;;;;;;;;18.10;65.80;;;;;;5055252;28;20290;-80
2023/06/18 02:01:45;;;;;;;;;;;17.80;66.10;;;;;;5065759;28;19923;-80
2023/06/18 02:04:11;;;;;;;;;;;17.90;66.20;;;;;;5055534;28;19908;-79
2023/06/18 02:06:36;;;;;;;;;;;17.90;66.40;;;;;;5066215;28;20324;-80
2023/06/18 02:09:02;;;;;;;;;;;18.00;66.10;;;;;;5055685;28;19923;-80
2023/06/18 02:11:27;;;;;;;;;;;17.90;66.10;;;;;;5069144;28;20435;-80
2023/06/18 02:13:53;;;;;;;;;;;17.90;66.60;;;;;;5049227;28;20374;-80
2023/06/18 02:16:18;;;;;;;;;;;17.70;67.10;;;;;;5061312;28;19921;-80
2023/06/18 02:18:44;;;;;;;;;;;17.60;67.40;;;;;;5076548;28;20007;-80
2023/06/18 02:21:09;;;;;;;;;;;17.70;67.40;;;;;;5060053;28;19920;-80
2023/06/18 02:23:35;;;;;;;;;;;17.80;66.90;;;;;;5065693;28;19909;-80
2023/06/18 02:26:01;;;;;;;;;;;17.70;66.70;;;;;;5069450;28;19921;-80
2023/06/18 02:28:26;;;;;;;;;;;17.70;67.30;;;;;;5062120;28;19912;-80
2023/06/18 02:30:52;;;;;;;;;;;17.70;66.90;;;;;;5063335;28;19915;-79
2023/06/18 02:33:18;;;;;;;;;;;17.80;66.80;;;;;;5060130;28;20408;-81
2023/06/18 02:35:43;;;;;;;;;;;17.70;67.60;;;;;;5078885;28;20382;-80
2023/06/18 02:38:09;;;;;;;;;;;17.60;66.90;;;;;;5060101;28;19920;-81
2023/06/18 02:40:34;;;;;;;;;;;17.60;66.90;;;;;;5055268;28;20029;-80
2023/06/18 02:43:04;;;;;;;;;;;17.50;66.80;;;;;;5059707;28;19916;-80
2023/06/18 02:45:30;;;;;;;;;;;17.40;67.10;;;;;;5075564;28;20323;-79
2023/06/18 02:47:56;;;;;;;;;;;17.40;67.40;;;;;;5049481;28;19944;-80
2023/06/18 02:50:21;;;;;;;;;;;17.40;67.70;;;;;;5075484;28;20364;-80
2023/06/18 02:52:46;;;;;;;;;;;17.50;67.80;;;;;;5052743;28;19936;-80
2023/06/18 02:55:12;;;;;;;;;;;17.40;68.00;;;;;;5047688;28;19913;-80
2023/06/18 02:57:38;;;;;;;;;;;17.40;68.10;;;;;;5067737;28;20305;-80
2023/06/18 03:00:06;;;;;;;;;;;17.40;67.90;;;;;;5058723;28;19959;-80
2023/06/18 03:02:32;;;;;;;;;;;17.40;68.10;;;;;;5048182;28;19913;-80
2023/06/18 03:04:57;;;;;;;;;;;17.50;68.00;;;;;;5071918;28;19965;-80
2023/06/18 03:07:23;;;;;;;;;;;17.40;68.40;;;;;;5048476;28;20038;-80
2023/06/18 03:09:48;;;;;;;;;;;17.40;68.00;;;;;;5055746;28;19923;-80
2023/06/18 03:12:14;;;;;;;;;;;17.50;67.90;;;;;;5074347;28;20412;-80
2023/06/18 03:14:39;;;;;;;;;;;17.30;68.30;;;;;;5054517;28;20212;-79
2023/06/18 03:17:05;;;;;;;;;;;17.30;68.00;;;;;;5068938;28;20013;-79
2023/06/18 03:19:30;;;;;;;;;;;17.30;68.30;;;;;;5054490;28;20249;-79
2023/06/18 03:21:56;;;;;;;;;;;17.50;67.80;;;;;;5044872;28;20389;-79
2023/06/18 03:24:22;;;;;;;;;;;17.20;68.70;;;;;;5053132;28;19912;-79
2023/06/18 03:26:48;;;;;;;;;;;17.30;68.60;;;;;;5046541;28;19919;-79
2023/06/18 03:29:14;;;;;;;;;;;17.40;68.20;;;;;;5053989;28;20012;-80
2023/06/18 03:31:40;;;;;;;;;;;17.40;68.10;;;;;;5057966;28;19939;-80
2023/06/18 03:34:07;;;;;;;;;;;17.40;68.10;;;;;;5059849;28;19921;-80
2023/06/18 03:36:39;;;;;;;;;;;17.40;68.20;;;;;;5073321;28;19916;-80
2023/06/18 03:39:04;;;;;;;;;;;17.50;68.10;;;;;;5055124;28;19934;-79
2023/06/18 03:41:30;;;;;;;;;;;17.50;68.20;;;;;;5056823;28;20330;-80
2023/06/18 03:43:55;;;;;;;;;;;17.40;68.50;;;;;;5057581;28;19922;-81
2023/06/18 03:46:21;;;;;;;;;;;17.40;68.80;;;;;;5051328;28;19913;-80
2023/06/18 03:48:46;;;;;;;;;;;17.40;68.70;;;;;;5056814;28;19917;-81
2023/06/18 03:51:12;;;;;;;;;;;17.40;68.30;;;;;;5053158;28;20357;-80
2023/06/18 03:53:37;;;;;;;;;;;17.50;68.60;;;;;;5049102;28;19966;-80
2023/06/18 03:56:04;;;;;;;;;;;17.40;68.40;;;;;;5065926;28;19921;-80
2023/06/18 03:58:29;;;;;;;;;;;17.30;68.50;;;;;;5061130;28;19955;-79
2023/06/18 04:00:55;;;;;;;;;;;17.30;68.60;;;;;;5066133;28;19915;-79
2023/06/18 04:03:22;;;;;;;;;;;17.30;68.50;;;;;;5058806;28;19963;-80
2023/06/18 04:05:48;;;;;;;;;;;17.20;68.70;;;;;;5055580;28;20014;-80
2023/06/18 04:08:13;;;;;;;;;;;17.20;68.50;;;;;;5040211;28;19951;-80
2023/06/18 04:10:39;;;;;;;;;;;17.20;68.90;;;;;;5051110;28;19917;-79
2023/06/18 04:13:05;;;;;;;;;;;17.20;68.50;;;;;;5068989;28;19913;-80
2023/06/18 04:15:30;;;;;;;;;;;17.30;68.10;;;;;;5053732;28;19931;-80
2023/06/18 04:17:56;;;;;;;;;;;17.40;68.20;;;;;;5050923;28;20239;-79
2023/06/18 04:20:21;;;;;;;;;;;17.50;68.30;;;;;;5073305;28;19908;-79
2023/06/18 04:22:47;;;;;;;;;;;17.50;69.30;;;;;;5046170;28;20020;-80
2023/06/18 04:25:12;;;;;;;;;;;17.40;69.80;;;;;;5053976;28;19912;-80
2023/06/18 04:27:38;;;;;;;;;;;17.40;70.20;;;;;;5049835;28;19919;-80
2023/06/18 04:30:05;;;;;;;;;;;17.50;69.50;;;;;;5075940;28;19908;-80
2023/06/18 04:32:30;;;;;;;;;;;17.60;69.10;;;;;;5055484;28;19922;-80
2023/06/18 04:34:56;;;;;;;;;;;17.60;69.30;;;;;;5076214;28;19977;-80
2023/06/18 04:37:22;;;;;;;;;;;17.60;68.70;;;;;;5069588;28;19916;-80
2023/06/18 04:39:47;;;;;;;;;;;17.60;68.90;;;;;;5071631;28;19924;-80
2023/06/18 04:42:13;;;;;;;;;;;17.60;68.90;;;;;;5058122;28;19908;-81
2023/06/18 04:44:38;;;;;;;;;;;17.60;69.00;;;;;;5051090;28;20323;-80
2023/06/18 04:47:04;;;;;;;;;;;17.70;68.70;;;;;;5072033;28;20034;-80
2023/06/18 04:49:30;;;;;;;;;;;17.80;68.30;;;;;;5050415;28;19916;-80
2023/06/18 04:51:55;;;;;;;;;;;17.80;67.70;;;;;;5056548;28;19913;-80
2023/06/18 04:54:21;;;;;;;;;;;17.90;67.30;;;;;;5049082;28;19919;-80
2023/06/18 04:56:46;;;;;;;;;;;18.00;66.30;;;;;;5068990;28;19960;-81
2023/06/18 04:59:12;;;;;;;;;;;18.00;66.20;;;;;;5064160;28;19916;-81
2023/06/18 05:01:37;;;;;;;;;;;18.10;66.30;;;;;;5053179;28;19929;-80
2023/06/18 05:04:03;;;;;;;;;;;18.20;65.80;;;;;;5044403;28;19980;-80
2023/06/18 05:06:28;;;;;;;;;;;18.40;66.20;;;;;;5051397;28;19916;-80
2023/06/18 05:08:53;;;;;;;;;;;18.30;66.70;;;;;;5064536;28;19913;-80
2023/06/18 05:11:19;;;;;;;;;;;18.40;67.30;;;;;;5054081;28;19934;-80
2023/06/18 05:13:44;;;;;;;;;;;18.50;67.50;;;;;;5048408;28;19939;-80
2023/06/18 05:16:10;;;;;;;;;;;18.50;67.60;;;;;;5052788;28;19913;-80
2023/06/18 05:18:36;;;;;;;;;;;18.70;68.10;;;;;;5051546;28;19920;-80
2023/06/18 05:21:02;;;;;;;;;;;18.90;68.10;;;;;;5053759;28;19954;-81
2023/06/18 05:23:27;;;;;;;;;;;19.00;68.40;;;;;;5047531;28;19918;-80
2023/06/18 05:25:53;;;;;;;;;;;19.00;68.40;;;;;;5075748;28;20402;-80
2023/06/18 05:28:19;;;;;;;;;;;19.20;68.30;;;;;;5087350;28;19924;-80
2023/06/18 05:30:46;;;;;;;;;;;19.30;68.20;;;;;;5061843;28;19912;-80
2023/06/18 05:33:12;;;;;;;;;;;19.40;67.60;;;;;;5064107;28;19923;-80
2023/06/18 05:35:38;;;;;;;;;;;19.50;66.40;;;;;;5074047;28;19913;-80
2023/06/18 05:38:03;;;;;;;;;;;19.50;66.70;;;;;;5046248;28;19921;-80
2023/06/18 05:40:28;;;;;;;;;;;19.60;64.80;;;;;;5079040;28;19926;-79
2023/06/18 05:42:54;;;;;;;;;;;19.70;64.90;;;;;;5062810;28;19924;-80
2023/06/18 05:45:19;;;;;;;;;;;19.80;64.10;;;;;;5078652;28;20406;-80
2023/06/18 05:47:45;;;;;;;;;;;20.00;63.80;;;;;;5059646;28;19916;-81
2023/06/18 05:50:10;;;;;;;;;;;20.10;63.40;;;;;;5080513;28;20362;-81
2023/06/18 05:52:36;;;;;;;;;;;20.20;63.50;;;;;;5072593;28;20008;-80
2023/06/18 05:55:01;;;;;;;;;;;20.40;62.80;;;;;;5056829;28;19912;-80
2023/06/18 05:57:27;;;;;;;;;;;20.50;61.20;;;;;;5066857;28;20409;-80
2023/06/18 05:59:53;;;;;;;;;;;20.60;61.20;;;;;;5079520;28;19918;-80
2023/06/18 06:02:18;;;;;;;;;;;20.60;60.80;;;;;;5045371;28;19969;-79
2023/06/18 06:04:43;;;;;;;;;;;20.70;60.60;;;;;;5065345;28;19916;-80
2023/06/18 06:07:09;;;;;;;;;;;20.70;61.30;;;;;;5070257;28;20012;-79
2023/06/18 06:09:35;;;;;;;;;;;20.80;61.20;;;;;;5050459;28;19999;-79
2023/06/18 06:12:01;;;;;;;;;;;20.80;60.90;;;;;;5050548;28;19999;-79
2023/06/18 06:14:26;;;;;;;;;;;20.90;61.00;;;;;;5072655;28;20011;-79
2023/06/18 06:16:57;;;;;;;;;;;20.90;60.40;;;;;;5049245;28;20406;-80
2023/06/18 06:19:22;;;;;;;;;;;21.00;60.20;;;;;;5087450;22;19968;-81
2023/06/18 06:21:48;;;;;;;;;;;21.00;61.30;;;;;;5104109;28;19912;-81
2023/06/18 06:24:15;;;;;;;;;;;21.10;61.10;;;;;;5103561;28;19922;-81
2023/06/18 06:26:40;;;;;;;;;;;21.10;61.10;;;;;;5110575;28;19912;-81
2023/06/18 06:29:06;;;;;;;;;;;21.10;60.80;;;;;;5106840;28;20276;-81
2023/06/18 06:31:31;;;;;;;;;;;21.20;60.70;;;;;;5101739;28;19913;-81
2023/06/18 06:33:57;;;;;;;;;;;21.20;60.80;;;;;;5084783;28;20290;-81
2023/06/18 06:36:22;;;;;;;;;;;21.20;60.50;;;;;;5107868;28;19952;-81
2023/06/18 06:38:48;;;;;;;;;;;21.30;60.70;;;;;;5104395;28;19912;-81
2023/06/18 06:41:13;;;;;;;;;;;21.40;61.30;;;;;;5104000;28;20036;-81
2023/06/18 06:43:39;;;;;;;;;;;21.50;61.50;;;;;;5104473;28;19915;-81
2023/06/18 06:46:05;;;;;;;;;;;21.50;60.80;;;;;;5105094;28;19948;-81
2023/06/18 06:48:31;;;;;;;;;;;21.50;61.00;;;;;;5091258;28;19968;-81
2023/06/18 06:50:57;;;;;;;;;;;21.60;61.10;;;;;;5107286;28;19912;-81
2023/06/18 06:53:22;;;;;;;;;;;21.60;61.20;;;;;;5099840;28;19909;-81
2023/06/18 06:55:48;;;;;;;;;;;21.60;61.10;;;;;;5097465;28;19912;-81
2023/06/18 06:58:13;;;;;;;;;;;21.70;61.10;;;;;;5110374;28;19946;-81
2023/06/18 07:00:39;;;;;;;;;;;21.70;60.80;;;;;;5089517;28;19943;-81
2023/06/18 07:03:05;;;;;;;;;;;21.80;60.00;;;;;;5101967;28;20398;-81
2023/06/18 07:05:30;;;;;;;;;;;21.80;60.20;;;;;;5101693;28;19912;-81
2023/06/18 07:07:56;;;;;;;;;;;21.90;60.00;;;;;;5072739;28;19912;-81
2023/06/18 07:10:21;;;;;;;;;;;22.00;60.20;;;;;;5082395;28;19930;-81
2023/06/18 07:12:47;;;;;;;;;;;22.10;59.50;;;;;;5103880;28;20007;-81
2023/06/18 07:15:12;;;;;;;;;;;22.20;58.70;;;;;;5081956;28;20402;-81
2023/06/18 07:17:38;;;;;;;;;;;22.40;59.00;;;;;;5109146;28;19938;-81
2023/06/18 07:20:03;;;;;;;;;;;22.60;58.40;;;;;;5079909;28;19920;-79
2023/06/18 07:22:29;;;;;;;;;;;22.60;57.80;;;;;;5101023;28;19912;-81
2023/06/18 07:24:56;;;;;;;;;;;22.80;57.50;;;;;;5100077;28;20424;-81
2023/06/18 07:27:22;;;;;;;;;;;22.90;57.90;;;;;;5096441;28;19919;-81
2023/06/18 07:29:47;;;;;;;;;;;23.00;57.10;;;;;;5100505;28;20003;-80
2023/06/18 07:32:13;;;;;;;;;;;23.10;56.80;;;;;;5097049;28;19982;-80
2023/06/18 07:34:38;;;;;;;;;;;23.30;56.20;;;;;;5095554;28;19912;-80
2023/06/18 07:37:05;;;;;;;;;;;23.30;56.10;;;;;;5098903;28;19919;-80
2023/06/18 07:39:30;;;;;;;;;;;23.40;55.90;;;;;;5073734;28;19919;-80
2023/06/18 07:41:56;;;;;;;;;;;23.50;54.50;;;;;;5096766;28;19916;-80
2023/06/18 07:44:21;;;;;;;;;;;23.60;54.30;;;;;;5096573;28;19976;-80
2023/06/18 07:46:47;;;;;;;;;;;23.70;54.70;;;;;;5086989;28;19916;-81
2023/06/18 07:49:13;;;;;;;;;;;23.90;54.20;;;;;;5100394;28;20015;-80
2023/06/18 07:51:38;;;;;;;;;;;24.00;53.30;;;;;;5099073;28;19955;-80
2023/06/18 07:54:04;;;;;;;;;;;24.00;53.60;;;;;;5080096;28;19916;-80
2023/06/18 07:56:29;;;;;;;;;;;24.10;54.20;;;;;;5103940;28;19916;-80
2023/06/18 07:58:55;;;;;;;;;;;24.30;52.00;;;;;;5102854;28;19965;-80
2023/06/18 08:01:20;;;;;;;;;;;24.40;52.00;;;;;;5116829;28;19912;-80
2023/06/18 08:03:46;;;;;;;;;;;24.40;50.00;;;;;;5083819;28;19920;-80
2023/06/18 08:06:11;;;;;;;;;;;24.40;50.40;;;;;;5080054;28;19912;-80
2023/06/18 08:08:37;;;;;;;;;;;24.30;50.30;;;;;;5080279;28;19964;-80
2023/06/18 08:11:02;;;;;;;;;;;24.40;50.30;;;;;;5097796;28;19912;-80
2023/06/18 08:13:29;;;;;;;;;;;24.50;49.50;;;;;;5082158;28;19913;-80
2023/06/18 08:15:55;;;;;;;;;;;24.50;51.20;;;;;;5094821;28;20061;-80
2023/06/18 08:18:20;;;;;;;;;;;24.70;49.30;;;;;;5099339;28;19959;-80
2023/06/18 08:20:46;;;;;;;;;;;24.90;49.60;;;;;;5105826;28;19916;-80
2023/06/18 08:23:11;;;;;;;;;;;24.90;48.40;;;;;;5088046;28;19919;-81
2023/06/18 08:25:37;;;;;;;;;;;25.00;46.70;;;;;;5108747;28;20704;-81
2023/06/18 08:28:02;;;;;;;;;;;25.20;44.70;;;;;;5079368;28;19916;-81
2023/06/18 08:30:28;;;;;;;;;;;25.30;44.70;;;;;;5077559;28;19912;-77
2023/06/18 08:32:56;;;;;;;;;;;25.50;45.50;;;;;;5100278;28;19931;-77
2023/06/18 08:35:22;;;;;;;;;;;25.40;44.40;;;;;;5079721;28;19912;-77
2023/06/18 08:37:47;;;;;;;;;;;25.40;44.40;;;;;;5088323;28;19927;-77
2023/06/18 08:40:13;;;;;;;;;;;25.40;44.70;;;;;;5088399;28;20006;-77
2023/06/18 08:42:39;;;;;;;;;;;25.50;43.00;;;;;;5086476;28;19957;-77
2023/06/18 08:45:05;;;;;;;;;;;25.50;43.50;;;;;;5095702;28;19916;-77
2023/06/18 08:47:32;;;;;;;;;;;25.60;42.60;;;;;;5075846;28;19912;-78
2023/06/18 08:49:59;;;;;;;;;;;25.60;41.90;;;;;;5078607;28;19965;-80
2023/06/18 08:52:26;;;;;;;;;;;25.70;43.10;;;;;;5097267;28;19916;-77
2023/06/18 08:54:54;;;;;;;;;;;26.00;40.00;;;;;;5105581;28;19955;-78
2023/06/18 08:57:37;;;;;;;;;;;26.00;41.10;;;;;;5081667;28;19917;-78
2023/06/18 09:00:06;;;;;;;;;;;26.00;41.40;;;;;;5072275;28;19927;-78
2023/06/18 09:02:32;;;;;;;;;;;26.10;41.50;;;;;;5097368;28;19908;-77
2023/06/18 09:04:58;;;;;;;;;;;26.20;40.00;;;;;;5089054;28;19995;-78
2023/06/18 09:07:24;;;;;;;;;;;26.30;38.50;;;;;;5077983;28;19916;-77
2023/06/18 09:09:50;;;;;;;;;;;26.50;38.20;;;;;;5081185;28;19913;-77
2023/06/18 09:12:15;;;;;;;;;;;26.40;38.80;;;;;;5070597;28;19955;-77
2023/06/18 09:14:41;;;;;;;;;;;26.50;39.40;;;;;;5099332;28;19916;-78
2023/06/18 09:17:06;;;;;;;;;;;26.50;38.90;;;;;;5082058;28;19930;-77
2023/06/18 09:19:32;;;;;;;;;;;26.50;37.50;;;;;;5084366;28;19916;-77
2023/06/18 09:22:10;;;;;;;;;;;26.40;36.40;;;;;;5083286;28;20631;-77
2023/06/18 09:24:36;;;;;;;;;;;26.40;38.10;;;;;;5081006;28;19931;-77
2023/06/18 09:27:03;;;;;;;;;;;26.50;38.80;;;;;;5076725;28;19916;-77
2023/06/18 09:29:29;;;;;;;;;;;26.50;38.30;;;;;;5087164;28;20007;-77
2023/06/18 09:31:55;;;;;;;;;;;26.60;37.70;;;;;;5084864;28;19920;-77
2023/06/18 09:34:21;;;;;;;;;;;26.60;38.60;;;;;;5092644;28;19918;-77
2023/06/18 09:36:47;;;;;;;;;;;26.60;38.50;;;;;;5065129;28;20379;-77
2023/06/18 09:39:25;;;;;;;;;;;26.60;36.30;;;;;;5085246;28;19935;-77
2023/06/18 09:41:53;;;;;;;;;;;26.60;36.80;;;;;;5088337;28;19916;-77
2023/06/18 09:44:20;;;;;;;;;;;26.70;37.60;;;;;;5066697;28;19912;-77
2023/06/18 09:46:56;;;;;;;;;;;26.70;37.10;;;;;;5093717;28;19912;-77
2023/06/18 09:49:33;;;;;;;;;;;26.80;38.00;;;;;;5090670;28;19912;-78
2023/06/18 09:51:59;;;;;;;;;;;26.90;37.50;;;;;;5083508;28;19973;-77
2023/06/18 09:54:39;;;;;;;;;;;27.00;36.10;;;;;;5060231;28;19916;-78
2023/06/18 09:57:06;;;;;;;;;;;27.00;36.90;;;;;;5079042;28;20392;-77
2023/06/18 09:59:31;;;;;;;;;;;27.00;36.20;;;;;;5062970;28;20356;-77
2023/06/18 10:01:57;;;;;;;;;;;27.10;36.30;;;;;;5067064;28;19916;-77
2023/06/18 10:04:23;;;;;;;;;;;27.10;35.60;;;;;;5088367;28;20032;-75
2023/06/18 10:06:51;;;;;;;;;;;27.10;34.10;;;;;;5088064;28;19923;-76
2023/06/18 10:09:19;;;;;;;;;;;27.10;35.00;;;;;;5069999;28;19939;-78
2023/06/18 10:11:45;;;;;;;;;;;27.10;34.30;;;;;;5090333;28;19916;-76
2023/06/18 10:14:13;;;;;;;;;;;27.20;33.20;;;;;;5054060;28;19989;-77
2023/06/18 10:16:45;;;;;;;;;;;27.10;33.60;;;;;;5083877;28;19916;-77
2023/06/18 10:19:25;;;;;;;;;;;27.10;35.20;;;;;;5089083;28;20312;-77
2023/06/18 10:22:03;;;;;;;;;;;27.20;34.50;;;;;;5074959;28;19912;-77
2023/06/18 10:24:41;;;;;;;;;;;27.30;34.40;;;;;;5072194;28;19927;-78
2023/06/18 10:27:07;;;;;;;;;;;27.30;33.80;;;;;;5091956;28;19915;-76
2023/06/18 10:29:33;;;;;;;;;;;27.10;35.10;;;;;;5065087;28;19931;-77
2023/06/18 10:32:00;;;;;;;;;;;27.20;35.10;;;;;;5088849;28;20348;-77
2023/06/18 10:34:26;;;;;;;;;;;27.30;34.90;;;;;;5095527;28;19912;-77
2023/06/18 10:36:52;;;;;;;;;;;27.30;35.50;;;;;;5087968;28;20260;-77
2023/06/18 10:39:17;;;;;;;;;;;27.30;34.50;;;;;;5094285;28;19924;-77
2023/06/18 10:41:44;;;;;;;;;;;27.30;33.30;;;;;;5071412;28;19912;-77
2023/06/18 10:44:09;;;;;;;;;;;27.50;34.50;;;;;;5086575;28;19912;-77
2023/06/18 10:46:35;;;;;;;;;;;27.60;32.40;;;;;;5092306;28;19919;-77
2023/06/18 10:49:14;;;;;;;;;;;27.80;32.50;;;;;;5093661;28;19938;-80
2023/06/18 10:51:40;;;;;;;;;;;28.00;34.50;;;;;;5083339;28;20237;-80
2023/06/18 10:54:18;;;;;;;;;;;28.20;32.60;;;;;;5097022;28;19922;-80
2023/06/18 10:56:51;;;;;;;;;;;28.10;33.50;;;;;;5108113;28;20402;-80
2023/06/18 10:59:32;;;;;;;;;;;28.20;33.80;;;;;;5092207;28;20031;-79
2023/06/18 11:01:58;;;;;;;;;;;28.30;33.20;;;;;;5093428;28;19923;-79
2023/06/18 11:04:23;;;;;;;;;;;28.40;32.70;;;;;;5096763;28;19912;-79
2023/06/18 11:06:49;;;;;;;;;;;28.50;32.60;;;;;;5106622;28;19918;-79
2023/06/18 11:09:15;;;;;;;;;;;28.50;33.30;;;;;;5096231;28;19920;-79
2023/06/18 11:11:49;;;;;;;;;;;28.60;32.90;;;;;;5079795;28;19912;-79
2023/06/18 11:14:19;;;;;;;;;;;28.60;31.80;;;;;;5101370;28;19916;-79
2023/06/18 11:17:05;;;;;;;;;;;28.60;32.70;;;;;;5076973;28;20051;-79
2023/06/18 11:19:31;;;;;;;;;;;28.90;32.60;;;;;;5071564;28;19920;-79
2023/06/18 11:21:56;;;;;;;;;;;28.90;32.20;;;;;;5070162;28;20014;-81
2023/06/18 11:24:22;;;;;;;;;;;29.00;30.90;;;;;;5083591;28;19920;-80
2023/06/18 11:26:48;;;;;;;;;;;29.10;31.90;;;;;;5090884;28;20004;-78
2023/06/18 11:29:14;;;;;;;;;;;29.20;30.60;;;;;;5093441;28;19919;-77
2023/06/18 11:31:46;;;;;;;;;;;29.40;30.80;;;;;;5083411;28;19912;-84
2023/06/18 11:34:11;;;;;;;;;;;29.50;30.20;;;;;;5090418;28;20264;-83
2023/06/18 11:36:38;;;;;;;;;;;29.40;30.10;;;;;;5093611;28;19935;-83
2023/06/18 11:39:04;;;;;;;;;;;29.30;32.00;;;;;;5081281;28;20053;-83
2023/06/18 11:41:30;;;;;;;;;;;29.10;31.40;;;;;;5092290;28;19943;-78
2023/06/18 11:43:57;;;;;;;;;;;29.00;32.60;;;;;;5073219;28;19971;-79
2023/06/18 11:46:28;;;;;;;;;;;28.80;32.60;;;;;;5090727;28;19916;-80
2023/06/18 11:48:55;;;;;;;;;;;28.70;31.60;;;;;;5072351;28;19919;-78
2023/06/18 11:51:22;;;;;;;;;;;28.60;33.70;;;;;;5075608;28;19913;-79
2023/06/18 11:53:47;;;;;;;;;;;28.50;31.60;;;;;;5072245;28;19916;-79
2023/06/18 11:56:13;;;;;;;;;;;28.40;32.00;;;;;;5087447;28;19970;-79
2023/06/18 11:58:38;;;;;;;;;;;28.30;31.90;;;;;;5078506;28;19916;-78
2023/06/18 12:01:04;;;;;;;;;;;28.20;31.80;;;;;;5085559;28;19963;-79
2023/06/18 12:06:47;;;;;;;;;;;28.30;31.40;;;;;;5008691;28;20033;-80
2023/06/18 12:09:13;;;;;;;;;;;28.30;32.10;;;;;;5089331;28;19920;-80
2023/06/18 12:11:47;;;;;;;;;;;28.40;31.30;;;;;;5102339;28;19942;-78
2023/06/18 12:14:16;;;;;;;;;;;28.40;31.70;;;;;;5094092;28;19912;-80
2023/06/18 12:16:44;;;;;;;;;;;28.10;30.40;;;;;;5097494;28;19920;-78
2023/06/18 12:19:10;;;;;;;;;;;28.00;31.70;;;;;;5071613;28;19920;-79
2023/06/18 12:21:35;;;;;;;;;;;28.00;31.30;;;;;;5094455;28;19912;-78
2023/06/18 12:24:01;;;;;;;;;;;28.10;31.00;;;;;;5105593;28;20002;-79
2023/06/18 12:26:30;;;;;;;;;;;28.20;31.80;;;;;;5094276;28;20354;-80
2023/06/18 12:28:56;;;;;;;;;;;28.20;31.50;;;;;;5094288;28;20286;-79
2023/06/18 12:31:25;;;;;;;;;;;28.50;31.20;;;;;;5088189;28;20063;-80
2023/06/18 12:33:50;;;;;;;;;;;28.60;31.50;;;;;;5070242;28;19927;-79
2023/06/18 12:36:16;;;;;;;;;;;28.90;30.70;;;;;;5077740;28;19920;-79
2023/06/18 12:38:45;;;;;;;;;;;29.00;31.10;;;;;;5103974;28;19949;-79
2023/06/18 12:41:18;;;;;;;;;;;29.10;31.20;;;;;;5092319;28;19919;-80
2023/06/18 12:43:44;;;;;;;;;;;29.30;31.00;;;;;;5088299;28;20048;-78
2023/06/18 12:46:09;;;;;;;;;;;29.30;30.60;;;;;;5092595;28;20419;-80
2023/06/18 12:48:39;;;;;;;;;;;29.30;30.80;;;;;;5070285;28;19908;-78
2023/06/18 12:51:05;;;;;;;;;;;29.30;32.30;;;;;;5085946;28;19926;-83
2023/06/18 12:53:31;;;;;;;;;;;29.40;30.90;;;;;;5073172;28;19916;-85
2023/06/18 12:55:58;;;;;;;;;;;29.40;31.20;;;;;;5074234;28;19943;-84
2023/06/18 12:58:24;;;;;;;;;;;29.50;30.30;;;;;;5071510;28;19916;-82
2023/06/18 13:00:53;;;;;;;;;;;29.50;30.00;;;;;;5082245;28;19936;-84
2023/06/18 13:03:21;;;;;;;;;;;29.60;30.80;;;;;;5061192;28;19919;-84
2023/06/18 13:05:47;;;;;;;;;;;29.70;32.20;;;;;;5091850;28;19912;-85
2023/06/18 13:08:16;;;;;;;;;;;29.50;31.60;;;;;;5072812;28;19908;-83
2023/06/18 13:10:42;;;;;;;;;;;29.50;29.90;;;;;;5093477;28;20344;-83
2023/06/18 13:13:07;;;;;;;;;;;29.40;31.10;;;;;;5091698;28;19912;-83
2023/06/18 13:15:33;;;;;;;;;;;29.40;30.10;;;;;;5097165;28;19930;-83
2023/06/18 13:17:59;;;;;;;;;;;29.40;30.80;;;;;;5116602;22;19934;-83
2023/06/18 13:20:24;;;;;;;;;;;29.70;30.10;;;;;;5110850;28;19933;-83
2023/06/18 13:22:51;;;;;;;;;;;29.80;31.20;;;;;;5104380;28;19972;-82
2023/06/18 13:25:16;;;;;;;;;;;29.90;30.20;;;;;;5116039;28;20435;-83
2023/06/18 13:27:42;;;;;;;;;;;29.70;31.10;;;;;;5104661;28;19966;-82
2023/06/18 13:30:08;;;;;;;;;;;29.60;30.60;;;;;;5083091;28;19919;-83
2023/06/18 13:32:34;;;;;;;;;;;29.60;32.00;;;;;;5090122;28;19955;-82
2023/06/18 13:34:59;;;;;;;;;;;29.60;31.00;;;;;;5066237;28;19958;-83
2023/06/18 13:37:25;;;;;;;;;;;29.60;30.20;;;;;;5076453;28;20292;-83
2023/06/18 13:39:51;;;;;;;;;;;29.70;30.70;;;;;;5098144;28;19913;-83
2023/06/18 13:42:17;;;;;;;;;;;29.60;31.10;;;;;;5079267;28;19923;-82
2023/06/18 13:44:43;;;;;;;;;;;29.60;30.60;;;;;;5074571;28;19916;-83
2023/06/18 13:47:08;;;;;;;;;;;29.60;31.40;;;;;;5090774;28;20007;-83
2023/06/18 13:49:35;;;;;;;;;;;29.60;30.70;;;;;;5070981;28;19950;-83
2023/06/18 13:52:00;;;;;;;;;;;29.60;29.70;;;;;;5081706;28;19912;-83
2023/06/18 13:54:26;;;;;;;;;;;29.60;29.80;;;;;;5066915;28;19935;-84
2023/06/18 13:56:52;;;;;;;;;;;29.60;30.00;;;;;;5090994;28;19932;-84
2023/06/18 13:59:17;;;;;;;;;;;29.60;30.50;;;;;;5077379;28;19966;-83
2023/06/18 14:01:43;;;;;;;;;;;29.60;30.00;;;;;;5093217;28;19939;-84
2023/06/18 14:04:09;;;;;;;;;;;29.60;30.40;;;;;;5074281;28;19970;-84
2023/06/18 14:06:34;;;;;;;;;;;29.60;31.80;;;;;;5094534;28;19912;-84
2023/06/18 14:09:00;;;;;;;;;;;29.60;32.50;;;;;;5077444;28;19930;-84
2023/06/18 14:11:27;;;;;;;;;;;29.90;30.10;;;;;;5076948;28;19923;-84
2023/06/18 14:13:53;;;;;;;;;;;29.90;31.00;;;;;;5078884;28;20404;-85
2023/06/18 14:16:19;;;;;;;;;;;30.00;32.00;;;;;;5074681;28;19908;-83